Downstream station:
SHEF ID: CHTM7 Spring River at Carthage, MO
STATION TYPE:
PRECIP STAGE RIV-FLOW
in ft cfs
Ccp-Rev Ccp-Rev Ccp-Rev
(US/Central)
05/17 00:00 0.00 4.78 1035
05/17 01:00 0.00 4.78 1035
05/17 02:00 0.00 4.76 1022
05/17 03:00 0.00 4.75 1015
05/17 04:00 0.00 4.73 1001
05/17 05:00 0.00 4.72 995
05/17 06:00 0.00 4.71 988
05/17 07:00 0.00 4.69 975
05/17 08:00 0.00 4.68 968
05/17 09:00 0.00 4.66 955
05/17 10:00 0.00 4.66 955
05/17 11:00 0.00 4.65 949
05/17 12:00 0.00 4.65 949
05/17 13:00 0.00 4.65 949
05/17 14:00 0.00 4.64 942
05/17 15:00 0.00 4.62 929
05/17 16:00 0.00 4.62 929
05/17 17:00 0.00 4.61 922
05/17 18:00 0.00 4.60 916
05/17 19:00 0.00 4.59 909
05/17 20:00 0.00 4.60 916
05/17 21:00 0.00 4.59 909
05/17 22:00 0.00 4.59 909
05/17 23:00 ---- ---- ----